Time;durP1;ratioP1;P1;durP2;ratioP2;P2;SDS_P1;SDS_P2;PMS_P1;PMS_P2;Temp;Humidity;BMP_temperature;BMP_pressure;BME280_temperature;BME280_humidity;BME280_pressure;Samples;Min_cycle;Max_cycle;Signal;HPM_P1;HPM_P2
2022/01/22 00:00:55;;;;;;;4.07;1.95;;;;;;;21.10;40.64;103377.34;7310413;19;131371;-66
2022/01/22 00:03:23;;;;;;;5.93;1.77;;;;;;;21.09;40.71;103385.91;7318109;19;130219;-66
2022/01/22 00:05:50;;;;;;;3.85;1.90;;;;;;;21.05;40.85;103388.22;7314574;19;129970;-66
2022/01/22 00:08:16;;;;;;;4.50;2.08;;;;;;;21.01;41.56;103373.84;7317196;19;130580;-66
2022/01/22 00:10:44;;;;;;;6.22;2.08;;;;;;;20.99;41.26;103370.41;7312596;19;130462;-66
2022/01/22 00:15:46;;;;;;;5.95;2.25;;;;;;;20.91;41.26;103356.66;7314758;19;128833;-66
2022/01/22 00:18:13;;;;;;;5.38;1.65;;;;;;;20.88;41.44;103363.50;7314508;19;131353;-66
2022/01/22 00:20:40;;;;;;;5.43;2.13;;;;;;;20.86;41.72;103362.84;7315030;19;130746;-66
2022/01/22 00:23:07;;;;;;;4.75;2.00;;;;;;;20.85;41.32;103363.06;7314416;19;128978;-66
2022/01/22 00:25:33;;;;;;;4.15;1.85;;;;;;;20.83;41.71;103365.16;7317517;19;129404;-66
2022/01/22 00:28:01;;;;;;;3.97;2.00;;;;;;;20.80;41.27;103363.63;7315978;19;130841;-66
2022/01/22 00:30:28;;;;;;;6.65;2.03;;;;;;;20.79;41.43;103355.50;7318439;19;130557;-66
2022/01/22 00:32:55;;;;;;;3.95;1.88;;;;;;;20.76;41.40;103354.00;7313301;19;129043;-66
2022/01/22 00:35:23;;;;;;;4.50;1.70;;;;;;;20.73;41.75;103354.34;7317034;19;129854;-66
2022/01/22 00:37:51;;;;;;;4.07;1.90;;;;;;;20.72;41.49;103344.28;7314222;19;130905;-66
2022/01/22 00:40:20;;;;;;;6.88;2.00;;;;;;;20.70;41.67;103343.63;7314850;19;130651;-66
2022/01/22 00:42:48;;;;;;;3.65;1.80;;;;;;;20.68;41.46;103342.97;7316831;19;128932;-66
2022/01/22 00:45:15;;;;;;;5.63;2.08;;;;;;;20.67;41.60;103344.91;7314344;19;128576;-66
2022/01/22 00:47:42;;;;;;;4.82;1.50;;;;;;;20.64;41.67;103341.66;7317580;19;131403;-66
2022/01/22 00:50:12;;;;;;;6.47;1.73;;;;;;;20.63;41.78;103339.94;7314884;19;131424;-66
2022/01/22 00:52:43;;;;;;;5.72;1.92;;;;;;;20.62;41.54;103338.22;7318506;19;130194;-65
2022/01/22 00:55:11;;;;;;;3.40;1.70;;;;;;;20.59;42.09;103345.91;7314678;19;130034;-66
2022/01/22 00:57:38;;;;;;;3.08;1.42;;;;;;;20.56;42.21;103346.28;7318195;19;130992;-66
2022/01/22 01:00:07;;;;;;;3.15;1.80;;;;;;;20.55;42.14;103350.16;7314211;19;130655;-66
2022/01/22 01:02:35;;;;;;;4.07;1.80;;;;;;;20.53;42.23;103349.50;7313852;19;129707;-66
2022/01/22 01:05:07;;;;;;;4.50;1.60;;;;;;;20.51;42.27;103346.06;7317303;19;129101;-66
2022/01/22 01:07:34;;;;;;;4.03;1.67;;;;;;;20.49;41.81;103350.94;7314534;19;130520;-66
2022/01/22 01:10:00;;;;;;;5.38;1.85;;;;;;;20.47;41.90;103350.28;7317316;19;130458;-66
2022/01/22 01:12:28;;;;;;;5.68;1.83;;;;;;;20.47;42.35;103343.88;7313536;19;128918;-66
2022/01/22 01:15:12;;;;;;;4.18;1.85;;;;;;;20.45;42.39;103347.72;7317403;19;128967;-66
2022/01/22 01:34:11;;;;;;;4.25;2.03;;;;;;;20.32;42.66;103349.47;7313412;19;129261;-66
2022/01/22 01:36:39;;;;;;;4.35;2.10;;;;;;;20.31;42.25;103361.69;7316927;19;131617;-66
2022/01/22 01:39:09;;;;;;;3.03;1.50;;;;;;;20.29;42.50;103359.09;7312668;19;131424;-66
2022/01/22 01:41:51;;;;;;;4.28;1.63;;;;;;;20.28;42.47;103357.38;7314030;19;130363;-66
2022/01/22 01:44:19;;;;;;;4.75;1.75;;;;;;;20.27;42.60;103364.88;7313354;19;128980;-66
2022/01/22 01:46:52;;;;;;;5.22;2.10;;;;;;;20.26;42.54;103360.34;7314865;19;128999;-66
2022/01/22 01:49:19;;;;;;;3.13;1.60;;;;;;;20.23;42.60;103359.91;7314231;19;131136;-66
2022/01/22 01:51:46;;;;;;;3.60;1.83;;;;;;;20.22;42.85;103359.03;7312658;19;130372;-66
2022/01/22 01:54:35;;;;;;;3.65;1.48;;;;;;;20.22;42.43;103363.75;7315936;19;130283;-66
2022/01/22 01:59:51;;;;;;;3.83;1.50;;;;;;;20.19;42.80;103351.06;7314408;19;130593;-66
2022/01/22 02:02:19;;;;;;;4.47;1.60;;;;;;;20.17;42.77;103356.00;7311863;19;131158;-66
2022/01/22 02:04:45;;;;;;;3.90;1.60;;;;;;;20.16;42.86;103362.63;7313205;19;128898;-66
2022/01/22 02:07:12;;;;;;;3.33;1.80;;;;;;;20.14;42.98;103356.38;7314739;19;129484;-66
2022/01/22 02:09:40;;;;;;;3.40;1.80;;;;;;;20.14;42.85;103364.72;7312146;19;131029;-69
2022/01/22 02:26:18;;;;;;;3.83;1.67;;;;;;;20.06;43.09;103348.19;7310643;19;128938;-66
2022/01/22 02:28:50;;;;;;;3.25;1.67;;;;;;;20.05;43.24;103346.47;7308502;19;128908;-66
2022/01/22 02:34:09;;;;;;;2.38;1.40;;;;;;;20.02;43.11;103352.41;7313286;19;131074;-65
2022/01/22 02:36:42;;;;;;;4.53;1.83;;;;;;;20.02;42.95;103352.41;7310615;19;128973;-65
2022/01/22 02:41:38;;;;;;;2.28;1.58;;;;;;;19.99;43.25;103342.53;7309905;19;130804;-65
2022/01/22 02:44:05;;;;;;;2.70;1.42;;;;;;;19.98;42.97;103347.19;7313525;19;131722;-65
2022/01/22 02:46:32;;;;;;;3.25;1.85;;;;;;;19.97;43.17;103344.63;7311149;19;128783;-65
2022/01/22 02:48:59;;;;;;;2.15;1.40;;;;;;;19.96;43.22;103352.09;7312597;19;128964;-66
2022/01/22 02:51:27;;;;;;;2.05;1.35;;;;;;;19.95;43.16;103347.59;7313220;19;131480;-65
2022/01/22 02:53:55;;;;;;;2.38;1.30;;;;;;;19.94;43.09;103345.00;7311702;19;130604;-65
2022/01/22 02:56:24;;;;;;;3.38;1.65;;;;;;;19.93;43.32;103346.06;7314720;19;128996;-65
2022/01/22 02:58:52;;;;;;;3.67;1.60;;;;;;;19.91;43.18;103343.50;7310370;19;129178;-65
2022/01/22 03:01:21;;;;;;;3.85;1.45;;;;;;;19.91;43.22;103346.28;7310484;19;130692;-65
2022/01/22 03:03:47;;;;;;;2.80;1.48;;;;;;;19.90;43.49;103344.56;7309595;19;130570;-65
2022/01/22 03:06:14;;;;;;;3.28;1.65;;;;;;;19.90;43.08;103349.22;7313139;19;128958;-66
2022/01/22 03:08:43;;;;;;;2.25;1.50;;;;;;;19.89;43.27;103339.16;7310178;19;129167;-65
2022/01/22 03:11:23;;;;;;;3.55;1.92;;;;;;;19.88;43.24;103341.09;7310823;19;131281;-65
2022/01/22 03:19:10;;;;;;;5.00;1.60;;;;;;;19.85;43.51;103349.81;7313881;19;128933;-65
2022/01/22 03:21:41;;;;;;;2.90;1.33;;;;;;;19.83;43.38;103349.16;7309024;19;130346;-65
2022/01/22 03:30:00;;;;;;;2.95;1.77;;;;;;;19.81;43.63;103362.41;7306131;19;129143;-65
2022/01/22 03:32:32;;;;;;;3.65;1.50;;;;;;;19.79;43.74;103358.94;7308119;19;130617;-65
2022/01/22 03:35:09;;;;;;;4.22;1.35;;;;;;;19.77;43.85;103361.06;7307652;19;130946;-65
2022/01/22 03:37:37;;;;;;;2.97;1.58;;;;;;;19.76;43.75;103359.34;7311393;19;128981;-65
2022/01/22 03:40:05;;;;;;;2.30;1.35;;;;;;;19.76;43.50;103353.78;7312117;19;129812;-65
2022/01/22 03:42:31;;;;;;;2.58;1.30;;;;;;;19.75;43.57;103355.72;7308454;19;130637;-65
2022/01/22 03:44:58;;;;;;;3.90;1.50;;;;;;;19.74;43.75;103350.31;7313028;19;130644;-65
2022/01/22 03:47:25;;;;;;;3.47;1.70;;;;;;;19.73;43.82;103354.16;7309849;19;129906;-65
2022/01/22 03:49:51;;;;;;;2.47;1.30;;;;;;;19.73;43.37;103349.47;7312327;19;128876;-64
2022/01/22 03:52:18;;;;;;;2.22;1.30;;;;;;;19.72;43.81;103349.66;7309041;19;131698;-65
2022/01/22 03:54:45;;;;;;;1.48;1.13;;;;;;;19.69;43.61;103349.00;7312059;19;130510;-65
2022/01/22 03:57:12;;;;;;;2.30;1.40;;;;;;;19.68;43.39;103347.28;7310140;19;129058;-65
2022/01/22 03:59:40;;;;;;;1.98;1.35;;;;;;;19.67;43.54;103344.69;7311536;19;129098;-65
2022/01/22 04:04:55;;;;;;;2.17;1.30;;;;;;;19.64;43.54;103340.41;7308884;19;130736;-65
2022/01/22 04:09:51;;;;;;;2.88;1.42;;;;;;;19.63;43.44;103344.22;7308483;19;129797;-65
2022/01/22 04:12:26;;;;;;;2.17;1.20;;;;;;;19.64;43.69;103348.72;7310630;19;130912;-65
2022/01/22 04:14:59;;;;;;;2.17;1.10;;;;;;;19.62;43.85;103342.50;7315449;19;130658;-65
2022/01/22 04:25:26;;;;;;;3.03;1.40;;;;;;;19.58;43.83;103334.75;7318175;19;130568;-65
2022/01/22 04:27:56;;;;;;;2.28;1.42;;;;;;;19.56;43.77;103337.75;7315099;19;129634;-65
2022/01/22 04:30:25;;;;;;;3.17;1.42;;;;;;;19.56;43.78;103334.97;7315728;19;129054;-65
2022/01/22 04:32:52;;;;;;;2.03;1.52;;;;;;;19.54;43.83;103331.53;7318022;19;130692;-65
2022/01/22 04:35:22;;;;;;;3.25;1.55;;;;;;;19.56;43.69;103336.88;7316114;19;130715;-65
2022/01/22 04:37:49;;;;;;;2.83;1.20;;;;;;;19.54;43.91;103337.06;7318194;19;128910;-65
2022/01/22 04:40:16;;;;;;;2.28;1.33;;;;;;;19.54;43.76;103337.06;7314626;19;128881;-65
2022/01/22 04:42:44;;;;;;;2.55;1.50;;;;;;;19.51;43.62;103332.75;7316668;19;131000;-65
2022/01/22 04:45:21;;;;;;;2.75;1.42;;;;;;;19.52;43.75;103333.63;7315188;19;130613;-65
2022/01/22 04:47:58;;;;;;;2.25;1.30;;;;;;;19.50;43.72;103333.81;7317138;19;129496;-65
2022/01/22 04:55:39;;;;;;;2.28;1.35;;;;;;;19.48;43.94;103332.28;7317604;19;131614;-65
2022/01/22 04:58:06;;;;;;;3.63;1.52;;;;;;;19.46;43.79;103332.47;7314879;19;128948;-65
2022/01/22 05:00:37;;;;;;;2.65;1.42;;;;;;;19.46;43.85;103331.59;7318422;19;129555;-65
2022/01/22 05:03:04;;;;;;;2.38;1.30;;;;;;;19.46;43.58;103328.81;7314558;19;130627;-65
2022/01/22 05:05:32;;;;;;;3.15;1.70;;;;;;;19.46;43.96;103332.47;7315751;19;131763;-65
2022/01/22 05:07:59;;;;;;;3.17;1.00;;;;;;;19.44;44.08;103323.47;7315993;19;130272;-65
2022/01/22 05:10:25;;;;;;;4.28;1.40;;;;;;;19.44;43.75;103329.03;7315031;19;129146;-65
2022/01/22 05:12:53;;;;;;;2.78;1.30;;;;;;;19.44;43.60;103325.41;7317052;19;131188;-65
2022/01/22 05:15:21;;;;;;;2.00;1.35;;;;;;;19.44;43.74;103323.47;7314882;19;131233;-65
2022/01/22 05:17:49;;;;;;;2.67;1.48;;;;;;;19.43;43.99;103324.53;7316364;19;129014;-65
2022/01/22 05:25:20;;;;;;;1.88;1.30;;;;;;;19.40;43.70;103316.59;7313284;19;130573;-65
2022/01/22 05:38:33;;;;;;;3.28;1.55;;;;;;;19.35;43.88;103325.50;7314596;19;129146;-65
2022/01/22 05:41:00;;;;;;;2.60;1.33;;;;;;;19.35;43.71;103325.50;7315188;19;129118;-65
2022/01/22 05:43:27;;;;;;;2.55;1.30;;;;;;;19.34;43.79;103339.56;7314189;19;130604;-65
2022/01/22 05:45:54;;;;;;;2.63;1.30;;;;;;;19.33;43.71;103338.69;7313244;19;131381;-65
2022/01/22 05:48:21;;;;;;;2.67;1.40;;;;;;;19.34;44.11;103339.56;7316514;19;128854;-65
2022/01/22 05:50:52;;;;;;;3.35;1.50;;;;;;;19.32;43.84;103350.84;7313031;19;131411;-65
2022/01/22 05:53:40;;;;;;;1.67;1.30;;;;;;;19.32;43.86;103347.22;7315720;19;130853;-65
2022/01/22 06:01:20;;;;;;;3.30;1.50;;;;;;;19.30;43.92;103349.31;7314581;19;128950;-65
2022/01/22 06:03:47;;;;;;;3.17;1.52;;;;;;;19.29;43.98;103356.81;7312816;19;131886;-65
2022/01/22 06:06:14;;;;;;;1.90;1.38;;;;;;;19.29;43.69;103355.94;7314964;19;130469;-65
2022/01/22 06:08:47;;;;;;;2.95;1.20;;;;;;;19.30;43.58;103350.22;7312721;19;129309;-65
2022/01/22 06:11:21;;;;;;;2.25;1.38;;;;;;;19.27;43.81;103350.59;7316078;19;128815;-65
2022/01/22 06:13:49;;;;;;;2.25;1.30;;;;;;;19.27;44.14;103342.25;7308436;19;131484;-65
2022/01/22 06:16:18;;;;;;;1.70;1.30;;;;;;;19.26;43.64;103351.63;7314799;19;130625;-65
2022/01/22 06:18:45;;;;;;;2.45;1.33;;;;;;;19.25;43.90;103352.69;7311876;19;128897;-65
2022/01/22 06:21:12;;;;;;;3.25;1.38;;;;;;;19.24;43.93;103348.19;7313170;19;129049;-65
2022/01/22 06:23:40;;;;;;;2.03;1.20;;;;;;;19.23;43.67;103357.56;7315352;19;130702;-65
2022/01/22 06:26:08;;;;;;;1.83;1.23;;;;;;;19.24;44.05;103353.72;7311998;19;130371;-65
2022/01/22 06:28:35;;;;;;;2.10;1.50;;;;;;;19.22;43.91;103353.06;7315430;19;128780;-65
2022/01/22 06:31:02;;;;;;;3.53;1.60;;;;;;;19.22;43.66;103356.72;7312422;19;128886;-65
2022/01/22 06:33:29;;;;;;;3.40;1.50;;;;;;;19.22;43.68;103358.59;7315577;19;130664;-65
2022/01/22 06:35:56;;;;;;;2.58;1.30;;;;;;;19.21;44.10;103360.53;7307445;19;131175;-65
2022/01/22 06:38:24;;;;;;;2.65;1.42;;;;;;;19.21;43.69;103357.75;7312718;19;128868;-65
2022/01/22 06:43:36;;;;;;;2.17;1.38;;;;;;;19.20;43.66;103358.78;7311083;19;131288;-65
2022/01/22 06:46:03;;;;;;;2.03;1.40;;;;;;;19.19;44.06;103353.44;7313301;19;131322;-65
2022/01/22 06:48:29;;;;;;;2.63;1.38;;;;;;;19.17;43.63;103364.69;7312442;19;129033;-65
2022/01/22 06:50:58;;;;;;;2.17;1.42;;;;;;;19.17;44.02;103361.09;7314158;19;128950;-65
2022/01/22 06:53:26;;;;;;;3.15;1.45;;;;;;;19.17;44.02;103361.09;7310417;19;130294;-64
2022/01/22 06:58:20;;;;;;;2.15;1.27;;;;;;;19.15;43.80;103363.19;7312940;19;129169;-65
2022/01/22 07:00:46;;;;;;;2.88;1.80;;;;;;;19.14;43.80;103364.22;7314238;19;128935;-65
2022/01/22 07:03:13;;;;;;;2.67;1.55;;;;;;;19.15;44.01;103364.03;7311314;19;130872;-65
2022/01/22 07:05:40;;;;;;;1.70;1.10;;;;;;;19.15;44.09;103365.94;7311867;19;131149;-65
2022/01/22 07:08:07;;;;;;;1.73;1.27;;;;;;;19.16;44.01;103360.19;7313058;19;128964;-65
2022/01/22 07:10:33;;;;;;;2.53;1.48;;;;;;;19.21;44.26;103365.22;7310827;19;129420;-65
2022/01/22 07:13:00;;;;;;;2.47;1.50;;;;;;;19.25;44.25;103363.78;7313592;19;130885;-64
2022/01/22 07:15:28;;;;;;;2.00;1.35;;;;;;;19.36;44.33;103376.34;7309749;19;130744;-65
2022/01/22 07:17:55;;;;;;;1.92;1.27;;;;;;;19.51;44.22;103388.28;7312886;19;128785;-65
2022/01/22 07:20:31;;;;;;;2.00;1.23;;;;;;;19.74;43.54;103384.53;7310450;19;129152;-65
2022/01/22 07:25:24;;;;;;;1.58;1.10;;;;;;;20.24;43.16;103387.50;7310653;19;130612;-65
2022/01/22 07:27:51;;;;;;;1.65;1.27;;;;;;;20.48;42.60;103402.06;7311409;19;133751;-65
2022/01/22 07:30:18;;;;;;;1.55;1.20;;;;;;;20.70;42.37;103402.91;7312591;19;129343;-65
2022/01/22 07:32:45;;;;;;;3.90;0.95;;;;;;;20.93;42.17;103406.53;7309831;19;131575;-65
2022/01/22 07:35:15;;;;;;;1.50;1.10;;;;;;;21.11;41.86;103406.91;7312801;19;130594;-65
2022/01/22 07:37:41;;;;;;;2.22;1.33;;;;;;;21.29;41.84;103398.03;7308666;19;128955;-65
2022/01/22 07:40:10;;;;;;;2.05;1.30;;;;;;;21.44;41.56;103403.47;7311948;19;130371;-65
2022/01/22 07:42:39;;;;;;;1.83;1.13;;;;;;;21.58;41.06;103400.78;7309911;19;130708;-65
2022/01/22 07:45:08;;;;;;;2.25;1.30;;;;;;;21.68;41.06;103401.25;7311488;19;131109;-65
2022/01/22 07:47:35;;;;;;;1.00;0.90;;;;;;;21.75;40.98;103398.50;7311161;19;128947;-65
2022/01/22 07:50:04;;;;;;;2.25;1.27;;;;;;;21.77;41.01;103401.94;7316732;19;129404;-65
2022/01/22 07:52:31;;;;;;;1.35;1.00;;;;;;;21.78;40.48;103398.09;7319759;19;130715;-65
2022/01/22 07:54:57;;;;;;;1.67;1.00;;;;;;;21.76;40.60;103401.09;7316980;19;130425;-65
2022/01/22 07:57:24;;;;;;;2.15;1.10;;;;;;;21.73;40.85;103403.41;7319866;19;128777;-65
2022/01/22 07:59:51;;;;;;;1.80;1.10;;;;;;;21.69;40.91;103404.94;7315512;19;129266;-65
2022/01/22 08:02:17;;;;;;;2.08;1.10;;;;;;;21.63;40.98;103410.25;7318255;19;130713;-65
2022/01/22 08:04:46;;;;;;;1.90;1.40;;;;;;;21.56;41.19;103398.22;7315180;19;131237;-65
2022/01/22 08:07:13;;;;;;;2.00;1.20;;;;;;;21.49;40.90;103398.19;7317968;19;129359;-66
2022/01/22 08:09:40;;;;;;;1.60;1.15;;;;;;;21.42;41.10;103400.03;7318926;19;129323;-65
2022/01/22 08:12:07;;;;;;;1.67;1.10;;;;;;;21.36;41.04;103389.72;7317191;19;130785;-65
2022/01/22 08:14:34;;;;;;;1.83;1.20;;;;;;;21.31;41.40;103397.81;7319451;19;130882;-65
2022/01/22 08:17:01;;;;;;;1.60;1.10;;;;;;;21.22;41.34;103405.50;7313882;19;131521;-65
2022/01/22 08:19:27;;;;;;;2.50;1.00;;;;;;;21.13;41.75;103404.78;7317596;19;128912;-65
2022/01/22 08:21:54;;;;;;;2.50;1.20;;;;;;;21.05;41.43;103408.56;7314611;19;130368;-65
2022/01/22 08:24:25;;;;;;;0.98;0.88;;;;;;;20.99;41.68;103416.88;7317300;19;131250;-65
2022/01/22 08:27:10;;;;;;;2.58;1.35;;;;;;;20.92;41.39;103405.69;7316022;19;128904;-65
2022/01/22 08:29:37;;;;;;;3.58;1.52;;;;;;;20.86;41.71;103409.28;7316258;19;128787;-65
2022/01/22 08:37:23;;;;;;;3.55;0.98;;;;;;;20.73;42.14;103422.00;7318168;19;129455;-65
2022/01/22 08:39:50;;;;;;;1.80;1.20;;;;;;;20.76;42.30;103420.75;7314426;19;129248;-65
2022/01/22 08:42:16;;;;;;;2.85;1.50;;;;;;;20.80;41.84;103416.50;7309951;19;130585;-64
2022/01/22 08:44:43;;;;;;;3.40;1.60;;;;;;;20.89;40.81;103417.22;7313719;19;134243;-64
2022/01/22 08:47:10;;;;;;;2.78;1.52;;;;;;;20.99;40.22;103419.66;7316288;19;128987;-64
2022/01/22 08:49:37;;;;;;;4.65;1.60;;;;;;;21.11;39.51;103415.25;7314793;19;129151;-64
2022/01/22 08:52:09;;;;;;;5.60;1.83;;;;;;;21.25;38.80;103423.72;7315462;19;136500;-65
2022/01/22 08:54:36;;;;;;;7.43;1.92;;;;;;;21.33;38.30;103416.06;7317113;19;131373;-64
2022/01/22 08:57:04;;;;;;;3.72;1.70;;;;;;;21.44;38.14;103417.38;7314507;19;130008;-64
2022/01/22 08:59:31;;;;;;;4.85;1.73;;;;;;;21.53;38.06;103420.91;7315744;19;129065;-65
2022/01/22 09:01:58;;;;;;;5.05;1.83;;;;;;;21.62;37.73;103422.44;7313190;19;130677;-65
2022/01/22 09:04:26;;;;;;;5.07;1.95;;;;;;;21.70;37.20;103421.41;7316008;19;130569;-64
2022/01/22 09:06:53;;;;;;;9.40;2.38;;;;;;;21.77;36.94;103422.34;7314246;19;128861;-64
2022/01/22 09:09:20;;;;;;;3.35;1.60;;;;;;;21.85;36.92;103417.63;7316843;19;128972;-65
2022/01/22 09:11:46;;;;;;;5.95;1.98;;;;;;;21.91;36.85;103422.41;7313793;19;131508;-64
2022/01/22 09:14:16;;;;;;;6.45;1.90;;;;;;;21.98;36.57;103435.25;7315656;19;130592;-65
2022/01/22 09:16:44;;;;;;;5.90;1.92;;;;;;;22.04;36.40;103428.00;7314565;19;130903;-64
2022/01/22 09:19:12;;;;;;;4.82;2.30;;;;;;;22.08;36.03;103423.72;7315290;19;129748;-65
2022/01/22 09:21:42;;;;;;;4.63;2.00;;;;;;;22.16;35.83;103432.97;7316016;19;130814;-65
2022/01/22 09:24:11;;;;;;;4.68;2.10;;;;;;;22.18;35.63;103433.59;7313339;19;130586;-64
2022/01/22 09:26:38;;;;;;;3.28;1.92;;;;;;;22.20;35.63;103432.34;7316218;19;128691;-64
2022/01/22 09:29:05;;;;;;;9.10;2.40;;;;;;;22.25;35.28;103442.91;7311967;19;129096;-64
2022/01/22 09:31:32;;;;;;;12.32;2.60;;;;;;;22.24;35.18;103441.19;7316354;19;130603;-65
2022/01/22 09:34:00;;;;;;;23.98;3.15;;;;;;;22.26;35.03;103447.41;7311943;19;130672;-65
2022/01/22 09:36:30;;;;;;;10.07;2.75;;;;;;;22.27;35.17;103449.13;7313589;19;129472;-66
2022/01/22 09:38:57;;;;;;;20.25;3.13;;;;;;;22.30;34.68;103448.69;7316663;19;129837;-65
2022/01/22 09:41:25;;;;;;;16.42;2.67;;;;;;;22.32;34.95;103446.56;7313280;19;130562;-65
2022/01/22 09:43:55;;;;;;;8.52;2.42;;;;;;;22.34;34.79;103450.00;7311249;19;132029;-65
2022/01/22 09:46:25;;;;;;;8.55;2.50;;;;;;;22.38;34.58;103456.88;7310907;19;130279;-65
2022/01/22 09:48:53;;;;;;;8.70;2.60;;;;;;;22.38;34.38;103456.88;7317243;19;129463;-65
2022/01/22 09:51:20;;;;;;;7.00;2.65;;;;;;;22.41;34.63;103462.03;7309054;19;131282;-66
2022/01/22 09:53:47;;;;;;;6.72;2.13;;;;;;;22.45;34.34;103468.06;7315229;19;130511;-65
2022/01/22 09:56:20;;;;;;;11.07;2.60;;;;;;;22.49;33.95;103474.06;7313204;19;128940;-64
2022/01/22 09:58:47;;;;;;;11.00;2.05;;;;;;;22.49;34.09;103479.66;7313277;19;136541;-65
2022/01/22 10:01:27;;;;;;;10.98;2.67;;;;;;;22.53;34.24;103472.56;7313139;19;131914;-65
2022/01/22 10:04:00;;;;;;;10.15;2.38;;;;;;;22.53;34.23;103478.13;7310916;19;133113;-65
2022/01/22 10:06:29;;;;;;;11.70;2.53;;;;;;;22.55;34.19;103478.78;7314304;19;129984;-65
2022/01/22 10:09:06;;;;;;;7.05;2.58;;;;;;;22.59;33.81;103482.88;7311941;19;129837;-64
2022/01/22 10:11:33;;;;;;;10.60;2.33;;;;;;;22.60;33.65;103487.41;7313877;19;131438;-65
2022/01/22 10:14:01;;;;;;;8.07;2.10;;;;;;;22.61;34.08;103483.53;7312545;19;131227;-64
2022/01/22 10:16:35;;;;;;;6.78;1.85;;;;;;;22.64;33.91;103494.28;7312794;19;129481;-65
2022/01/22 10:19:22;;;;;;;10.65;2.53;;;;;;;22.64;33.81;103497.06;7315374;19;129106;-64
2022/01/22 10:22:01;;;;;;;10.13;2.40;;;;;;;22.63;33.75;103498.16;7312801;19;130632;-65
2022/01/22 10:27:38;;;;;;;10.68;2.08;;;;;;;22.67;33.77;103499.41;7310922;19;128961;-65
2022/01/22 10:30:16;;;;;;;9.55;2.47;;;;;;;22.67;33.90;103502.22;7310958;19;130669;-65
2022/01/22 10:32:58;;;;;;;7.85;2.60;;;;;;;22.67;34.29;103498.56;7315553;19;131273;-64
2022/01/22 10:35:27;;;;;;;4.40;1.98;;;;;;;22.66;35.29;103494.06;7299821;19;131684;-66
2022/01/22 10:38:18;;;;;;;6.45;2.03;;;;;;;22.65;34.87;103493.19;7313474;19;129381;-66
2022/01/22 10:40:49;;;;;;;8.93;2.10;;;;;;;22.64;35.01;103487.81;7312729;19;128888;-66
2022/01/22 10:43:33;;;;;;;11.50;2.05;;;;;;;22.62;34.71;103490.84;7314063;19;130671;-66
2022/01/22 10:46:11;;;;;;;7.45;2.00;;;;;;;22.61;35.28;103489.13;7314796;19;130545;-66
2022/01/22 10:48:43;;;;;;;8.57;1.70;;;;;;;22.61;35.13;103488.25;7313033;19;128807;-67
2022/01/22 10:51:14;;;;;;;10.40;2.05;;;;;;;22.58;35.38;103486.75;7314377;19;129509;-66
2022/01/22 10:53:45;;;;;;;9.45;1.88;;;;;;;22.58;35.20;103490.41;7309969;19;130811;-65
2022/01/22 10:56:17;;;;;;;7.57;1.55;;;;;;;22.56;35.47;103489.75;7312617;19;131218;-65
2022/01/22 10:58:56;;;;;;;5.65;1.83;;;;;;;22.52;35.00;103487.59;7309704;19;129963;-64
2022/01/22 11:01:31;;;;;;;6.70;1.90;;;;;;;22.47;35.07;103482.63;7305122;19;128859;-66
2022/01/22 11:04:05;;;;;;;16.23;2.70;;;;;;;22.43;35.74;103486.94;7312090;19;130517;-65
2022/01/22 11:06:32;;;;;;;5.57;1.80;;;;;;;22.38;35.42;103501.50;7309750;19;131167;-65
2022/01/22 11:08:59;;;;;;;5.30;1.80;;;;;;;22.35;35.89;103499.13;7313315;19;128965;-65
2022/01/22 11:11:26;;;;;;;4.18;1.50;;;;;;;22.27;35.76;103499.34;7309472;19;129104;-65
2022/01/22 11:13:53;;;;;;;4.93;1.80;;;;;;;22.21;35.88;103486.22;7312221;19;131274;-64
2022/01/22 11:16:20;;;;;;;3.58;1.70;;;;;;;22.15;35.64;103475.88;7310424;19;130495;-64
2022/01/22 11:19:09;;;;;;;8.77;2.13;;;;;;;22.06;36.34;103470.47;7306451;19;129922;-66
2022/01/22 11:21:40;;;;;;;7.53;1.70;;;;;;;21.99;36.35;103469.59;7310024;19;129006;-65
2022/01/22 11:24:11;;;;;;;8.93;1.60;;;;;;;21.93;36.48;103464.81;7310804;19;130699;-66
2022/01/22 11:26:38;;;;;;;12.55;2.10;;;;;;;21.88;36.17;103473.81;7317796;19;133798;-65
2022/01/22 11:29:06;;;;;;;4.32;1.50;;;;;;;21.81;36.67;103470.97;7317538;19;128879;-65
2022/01/22 11:31:35;;;;;;;3.53;1.70;;;;;;;21.77;36.29;103478.06;7317906;19;130625;-65
2022/01/22 11:34:03;;;;;;;6.22;1.65;;;;;;;21.74;36.56;103480.38;7316109;19;131367;-65
2022/01/22 11:36:44;;;;;;;13.32;1.95;;;;;;;21.69;36.74;103475.41;7318599;19;130486;-65
2022/01/22 11:39:20;;;;;;;3.60;1.60;;;;;;;21.64;36.84;103483.56;7316080;19;128900;-65
2022/01/22 11:41:54;;;;;;;8.07;2.27;;;;;;;21.59;36.89;103477.72;7316604;19;130639;-66
2022/01/22 11:45:01;;;;;;;5.28;2.25;;;;;;;21.54;36.55;103483.06;7312742;19;131369;-65
2022/01/22 11:47:28;;;;;;;3.75;2.38;;;;;;;21.48;36.52;103477.19;7314556;19;130748;-65
2022/01/22 11:50:10;;;;;;;7.88;2.83;;;;;;;21.46;36.56;103482.09;7318962;19;128918;-65
2022/01/22 11:52:39;;;;;;;6.45;2.15;;;;;;;21.43;36.35;103479.72;7314963;19;129196;-65
2022/01/22 11:55:10;;;;;;;5.47;1.83;;;;;;;21.41;36.40;103479.09;7317456;19;131991;-65
2022/01/22 11:57:38;;;;;;;4.50;2.03;;;;;;;21.39;36.54;103472.84;7313643;19;132577;-65
2022/01/22 12:00:19;;;;;;;4.03;1.90;;;;;;;21.38;36.61;103471.13;7316201;19;129077;-65
2022/01/22 12:03:08;;;;;;;4.15;1.80;;;;;;;21.36;37.10;103471.31;7314265;19;128997;-65
2022/01/22 12:05:54;;;;;;;;;;;;;;;21.30;36.69;103460.13;7315932;19;132704;-65
2022/01/22 12:08:22;;;;;;;8.25;1.80;;;;;;;21.31;36.90;103456.28;7317985;19;130500;-65
2022/01/22 12:16:17;;;;;;;;;;;;;;;21.21;37.09;103449.16;7316175;19;131110;-65
2022/01/22 12:18:59;;;;;;;5.13;1.90;;;;;;;21.22;37.32;103458.38;7316452;19;130512;-66
2022/01/22 12:21:31;;;;;;;6.18;1.80;;;;;;;21.20;37.53;103454.94;7315864;19;129376;-65
2022/01/22 12:23:59;;;;;;;6.88;2.13;;;;;;;21.16;37.08;103454.50;7316236;19;131176;-64
2022/01/22 12:26:46;;;;;;;4.97;2.10;;;;;;;21.13;37.08;103449.31;7319139;19;131559;-65
2022/01/22 12:29:27;;;;;;;4.20;1.90;;;;;;;21.09;37.45;103448.00;7315243;19;130673;-65
2022/01/22 12:32:16;;;;;;;9.48;2.70;;;;;;;21.07;37.26;103452.91;7318134;19;129340;-65
2022/01/22 12:34:53;;;;;;;5.38;2.55;;;;;;;21.04;37.12;103439.41;7312734;19;129908;-65
2022/01/22 12:37:21;;;;;;;7.78;2.92;;;;;;;21.03;37.25;103437.69;7315302;19;131601;-64
2022/01/22 12:39:52;;;;;;;6.45;2.67;;;;;;;21.03;36.81;103446.03;7316944;19;131619;-66
2022/01/22 12:42:45;;;;;;;6.32;3.10;;;;;;;21.04;36.47;103444.97;7314609;19;130377;-66
2022/01/22 12:45:09;;;;;;;5.65;2.85;;;;;;;21.09;36.45;103449.94;7313956;19;129744;-67
2022/01/22 12:47:37;;;;;;;8.43;2.70;;;;;;;21.12;36.03;103455.94;7315033;19;130803;-67
2022/01/22 12:50:08;;;;;;;11.45;2.90;;;;;;;21.19;35.81;103461.56;7318335;19;130753;-67
2022/01/22 12:52:35;;;;;;;11.40;3.10;;;;;;;21.25;36.03;103466.31;7312491;19;128952;-67
2022/01/22 12:55:25;;;;;;;6.65;2.72;;;;;;;21.33;35.61;103459.72;7316771;19;129437;-67
2022/01/22 12:57:57;;;;;;;7.57;2.40;;;;;;;21.37;35.55;103466.63;7315483;19;130796;-68
2022/01/22 13:00:24;;;;;;;5.40;2.97;;;;;;;21.42;35.63;103469.66;7315910;19;130634;-67
2022/01/22 13:02:57;;;;;;;6.28;2.28;;;;;;;21.47;35.50;103472.69;7315770;19;128877;-66
2022/01/22 13:05:28;;;;;;;3.90;2.55;;;;;;;21.52;35.51;103466.53;7315657;19;129132;-67
2022/01/22 13:08:00;;;;;;;7.57;2.35;;;;;;;21.56;35.39;103464.19;7317316;19;131398;-67
2022/01/22 13:10:32;;;;;;;6.82;2.85;;;;;;;21.61;35.27;103467.25;7315198;19;130499;-67
2022/01/22 13:13:01;;;;;;;7.80;2.60;;;;;;;21.63;35.08;103452.03;7317367;19;129118;-66
2022/01/22 13:15:30;;;;;;;3.92;2.33;;;;;;;21.66;35.14;103453.56;7314993;19;129082;-67
2022/01/22 13:17:59;;;;;;;5.18;2.70;;;;;;;21.69;35.07;103453.13;7315949;19;130405;-66
2022/01/22 13:20:36;;;;;;;6.32;2.38;;;;;;;21.72;34.75;103449.94;7314336;19;130663;-67
2022/01/22 13:23:19;;;;;;;6.27;2.53;;;;;;;21.75;34.41;103451.44;7314856;19;128993;-67